Metar Report
Metar
METAR KULS 230256Z AUTO 11003KT 10SM SCT048 07/02 A3016 A02 5419
METAR KULS 230156Z AUTO 10003KT 10SM CLR 07/02 A3015 A02 5418
METAR KULS 230056Z AUTO 08004KT 10SM SCT043 11/03 A3013 A02 5417
METAR KULS 222356Z AUTO 08007KT 10SM CLR 11/02 A3012 A02 5416
METAR KULS 222256Z AUTO 01004KT 10SM CLR 12/02 A3013 A02 5415
METAR KULS 222156Z AUTO 01005KT 10SM CLR 12/02 A3014 A02 5414
METAR KULS 222056Z AUTO 34007KT 310V020 10SM SCT040 12/02 A3016 A02 5413
METAR KULS 221956Z AUTO 03004KT 10SM BKN040 BKN070 11/02 A3018 A02 5412
METAR KULS 221856Z AUTO 01007G18KT 10SM BKN035 OVC041 10/02 A3019 A02 5411
METAR KULS 221756Z AUTO 02009KT 350V050 10SM SCT031 10/02 A3020 A02 5410
METAR KULS 221656Z AUTO 36006KT 10SM OVC029 08/01 A3022 A02 5409
METAR KULS 221556Z AUTO 34007KT 10SM BKN024 BKN031 07/02 A3022 A02 5408
METAR KULS 221456Z AUTO 34007KT 10SM SCT017 SCT022 06/02 A3022 A02 5407
METAR KULS 221356Z AUTO 30006KT 10SM SCT006 03/03 A3022 A02 5406
METAR KULS 221256Z AUTO 33004KT 3SM BR CLR 01/00 A3022 A02 5405
METAR KULS 221156Z AUTO 31005KT 2 1/2SM BR CLR 00/00 A3021 A02 5404
METAR KULS 221056Z AUTO 27006KT 4SM BR OVC023 02/01 A3019 A02 5403
METAR KULS 220956Z AUTO 32004KT 4SM BR SCT005 OVC023 01/00 A3019 A02 5402
METAR KULS 220856Z AUTO 33005KT 3SM BR CLR 00/00 A3019 A02 5401
METAR KULS 220756Z AUTO 35006KT 5SM BR SCT008 OVC043 02/02 A3020 A02 5400
METAR KULS 220656Z AUTO 31003KT 7SM BKN006 OVC031 03/02 A3021 A02 5399
METAR KULS 220556Z AUTO 01007KT 7SM SCT006 BKN026 OVC032 03/03 A3019 A02 5398
METAR KULS 220456Z AUTO 02004KT 4SM BR BKN004 BKN009 OVC024 03/03 A3021 A02 5397
METAR KULS 220356Z AUTO 03006KT 7SM SCT006 BKN010 OVC014 04/03 A3023 A02 5396
METAR KULS 220256Z AUTO 03007KT 10SM SCT011 BKN016 OVC030 04/03 A3022 A02 5395
METAR KULS 220156Z AUTO 34007KT 10SM SCT032 OVC038 04/03 A3019 A02 5394
METAR KULS 220056Z AUTO 36006KT 7SM BR SCT003 BKN015 OVC019 04/03 A3019 A02 5393
METAR KULS 212356Z AUTO 36011KT 10SM SCT007 SCT011 OVC023 06/03 A3017 A02 5392
METAR KULS 212256Z AUTO 34010KT 10SM BKN021 OVC028 06/03 A3016 A02 5391
METAR KULS 212156Z AUTO 36014KT 10SM BKN018 OVC025 06/03 A3014 A02 5390
METAR KULS 212056Z AUTO 35009KT 10SM SCT015 BKN022 OVC028 07/04 A3013 A02 5389
METAR KULS 211956Z AUTO 36013KT 10SM SCT013 OVC022 07/04 A3012 A02 5388
METAR KULS 211856Z AUTO 01015KT 10SM OVC012 06/04 A3011 A02 5387
METAR KULS 211756Z AUTO 01010KT 10SM BKN008 OVC013 06/04 A3012 A02 5386
METAR KULS 211656Z AUTO 01012KT 2SM BR BKN006 OVC010 04/03 A3012 A02 5385
METAR KULS 211556Z AUTO 01009KT 1 1/2SM BR OVC004 04/03 A3012 A02 5384
METAR KULS 211456Z AUTO 02008KT 1 1/2SM BR OVC002 03/03 A3011 A02 5383
METAR KULS 211356Z AUTO 03009KT 1 1/4SM BR OVC004 03/03 A3010 A02 5382
METAR KULS 211256Z AUTO 03009KT 5SM BR OVC006 03/03 A3009 A02 5381
METAR KULS 211156Z AUTO 03006KT 10SM OVC008 04/03 A3007 A02 5380
METAR KULS 211056Z AUTO 06006KT 10SM OVC008 04/03 A3006 A02 5379
METAR KULS 210956Z AUTO 08005KT 10SM OVC010 03/02 A3005 A02 5378
METAR KULS 210856Z AUTO 10006KT 10SM BKN012 OVC016 03/02 A3005 A02 5377
METAR KULS 210756Z AUTO 11010G16KT 10SM SCT008 OVC014 04/03 A3005 A02 5376
METAR KULS 210656Z AUTO 08014KT 10SM VCTS OVC011 04/03 A3006 A02 5375
METAR KULS 210556Z AUTO 09013G17KT 10SM BKN009 OVC016 04/03 A3008 A02 5374
METAR KULS 210456Z AUTO 08017KT 10SM OVC009 04/04 A3006 A02 5373
METAR KULS 210356Z AUTO 09013KT 10SM SCT007 BKN024 OVC042 04/03 A3010 A02 5372
METAR KULS 210256Z AUTO 11016KT 7SM -RA SCT007 OVC011 05/04 A3011 A02 5371
METAR KULS 210156Z AUTO 09011KT 5SM RA BKN010 BKN016 OVC022 06/05 A3008 A02 5370
METAR KULS 210056Z AUTO 13008KT 7SM -RA BKN012 BKN017 OVC024 07/05 A3010 A02 5369
METAR KULS 202356Z AUTO 03006KT 10SM OVC065 08/04 A3003 A02 5368
METAR KULS 202256Z AUTO 06010KT 10SM VCTS OVC065 08/04 A2999 A02 5367
METAR KULS 202156Z AUTO 09009KT 10SM SCT065 08/04 A3002 A02 5366
METAR KULS 202056Z AUTO 06006KT 10SM SCT050 SCT065 07/04 A3005 A02 5365
METAR KULS 201956Z AUTO 11007KT 10SM -TSRA SCT002 SCT006 OVC075 06/03 A3006 A02 5364
METAR KULS 201856Z AUTO 09004KT 10SM VCTS SCT075 06/03 A3007 A02 5363
METAR KULS 201756Z AUTO 13009KT 10SM VCTSRA SCT003 SCT007 04/01 A3010 A02 5362
METAR KULS 201656Z AUTO 14017G22KT 10SM SCT070 07/02 A3012 A02 5361
METAR KULS 201556Z AUTO 14020G24KT 10SM SCT060 07/00 A3014 A02 5360
METAR KULS 201456Z AUTO 13017KT 10SM SCT065 06/M01 A3014 A02 5359
METAR KULS 201356Z AUTO 13014G18KT 10SM BKN065 04/M02 A3015 A02 5358
METAR KULS 201256Z AUTO 11013KT 10SM SCT075 03/M03 A3014 A02 5357
METAR KULS 201156Z AUTO 12015G21KT 10SM SCT075 04/M03 A3014 A02 5356
METAR KULS 201056Z AUTO 13017G22KT 10SM SCT075 05/M02 A3014 A02 5355
METAR KULS 200956Z AUTO 12017KT 10SM SCT075 06/M02 A3014 A02 5354
METAR KULS 200856Z AUTO 12017KT 10SM SCT080 06/M03 A3016 A02 5353
METAR KULS 200756Z AUTO 12016G22KT 10SM SCT080 06/M03 A3017 A02 5352
METAR KULS 200656Z AUTO 12018G23KT 10SM CLR 07/M03 A3018 A02 5351
METAR KULS 200556Z AUTO 11015G21KT 10SM CLR 07/M03 A3018 A02 5350
METAR KULS 200456Z AUTO 12018G24KT 10SM CLR 08/M03 A3017 A02 5349
METAR KULS 200356Z AUTO 12018G23KT 10SM CLR 09/M03 A3020 A02 5348
METAR KULS 200256Z AUTO 11016G23KT 10SM CLR 10/M03 A3018 A02 5347
METAR KULS 200156Z AUTO 11014G21KT 10SM CLR 11/M03 A3017 A02 5346
METAR KULS 200056Z AUTO 12020G24KT 10SM CLR 13/M03 A3018 A02 5345
METAR KULS 192356Z AUTO 13016G22KT 10SM CLR 16/M02 A3018 A02 5344
METAR KULS 192256Z AUTO 11017G25KT 10SM CLR 18/M01 A3019 A02 5343
METAR KULS 192156Z AUTO 14021G27KT 10SM CLR 18/M02 A3022 A02 5342
METAR KULS 192056Z AUTO 14016G26KT 10SM CLR 17/M02 A3025 A02 5341
METAR KULS 191956Z AUTO 15017G24KT 10SM CLR 16/M02 A3030 A02 5340
METAR KULS 191856Z AUTO 15017G23KT 10SM CLR 14/M02 A3033 A02 5339
METAR KULS 191756Z AUTO 13010G16KT 10SM CLR 13/M02 A3037 A02 5338
METAR KULS 191656Z AUTO 13011G16KT 10SM CLR 11/M03 A3039 A02 5337
METAR KULS 191556Z AUTO 14009KT 10SM CLR 10/M03 A3042 A02 5336
METAR KULS 191456Z AUTO 11005KT 10SM CLR 07/M03 A3040 A02 5335
METAR KULS 191356Z AUTO 15005KT 10SM CLR 04/M04 A3040 A02 5334
METAR KULS 191256Z AUTO 00000KT 10SM CLR M02/M07 A3039 A02 5333
METAR KULS 191156Z AUTO 00000KT 10SM CLR M03/M08 A3037 A02 5332
METAR KULS 191056Z AUTO 00000KT 10SM CLR M04/M08 A3035 A02 5331
METAR KULS 190956Z AUTO 00000KT 10SM CLR M01/M06 A3034 A02 5330
METAR KULS 190856Z AUTO 12005KT 10SM CLR 00/M06 A3033 A02 5329
METAR KULS 190756Z AUTO 12005KT 10SM CLR 00/M07 A3031 A02 5328
METAR KULS 190656Z AUTO 11007KT 10SM CLR 02/M07 A3031 A02 5327
METAR KULS 190556Z AUTO 06004KT 10SM CLR 02/M09 A3030 A02 5326
METAR KULS 190456Z AUTO 04004KT 10SM CLR 03/M09 A3028 A02 5325
METAR KULS 190356Z AUTO 04003KT 10SM CLR 04/M09 A3026 A02 5324
METAR KULS 190256Z AUTO 03005KT 10SM CLR 06/M09 A3024 A02 5323
METAR KULS 190156Z AUTO 36007KT 10SM CLR 08/M08 A3022 A02 5322
METAR KULS 190056Z AUTO 35008KT 10SM CLR 13/M07 A3021 A02 5321
METAR KULS 182356Z AUTO 34016G21KT 10SM CLR 14/M08 A3019 A02 5320
METAR KULS 182256Z AUTO 35014G24KT 10SM CLR 16/M07 A3019 A02 5319
METAR KULS 182156Z AUTO 32017G26KT 10SM CLR 16/M07 A3019 A02 5318
METAR KULS 182056Z AUTO 32019G27KT 10SM CLR 16/M07 A3019 A02 5317
METAR KULS 181956Z AUTO 33016G32KT 10SM CLR 16/M08 A3019 A02 5316
METAR KULS 181856Z AUTO 33023G28KT 10SM CLR 14/M08 A3019 A02 5315
METAR KULS 181756Z AUTO 32021G31KT 10SM CLR 13/M08 A3020 A02 5314
METAR KULS 181656Z AUTO 32025G33KT 10SM CLR 13/M07 A3020 A02 5313
METAR KULS 181556Z AUTO 32021G29KT 10SM CLR 11/M06 A3019 A02 5312
METAR KULS 181456Z AUTO 32019G29KT 10SM CLR 08/M06 A3018 A02 5311
METAR KULS 181415Z AUTO 32019KT MM MM MM MM/MM A3016 A02 5310
METAR KULS 181356Z AUTO 32019G24KT 10SM CLR 07/M06 A3016 A02 5309
METAR KULS 181256Z AUTO 31011KT 10SM CLR 02/M06 A3013 A02 5308
METAR KULS 181156Z AUTO 33022G30KT 10SM CLR 02/M06 A3008 A02 5307
METAR KULS 181056Z AUTO 33024G31KT 10SM CLR 03/M06 A3006 A02 5306
METAR KULS 180956Z AUTO 33017G27KT 10SM CLR 03/M06 A3005 A02 5305
METAR KULS 180856Z AUTO 32021G24KT 10SM CLR 03/M06 A3001 A02 5304
METAR KULS 180756Z AUTO 32021G28KT 10SM CLR 04/M05 A2998 A02 5303
METAR KULS 180656Z AUTO 32020G28KT 10SM CLR 06/M04 A2997 A02 5302
METAR KULS 180556Z AUTO 32027G38KT 10SM CLR 07/M06 A2990 A02 5301
METAR KULS 180456Z AUTO 32023G39KT 10SM CLR 10/M06 A2988 A02 5300
METAR KULS 180356Z AUTO 33023G34KT 10SM CLR 11/M06 A2982 A02 5299